createdAt,value
2017-03-22T00:00:15.244Z,1009.36
2017-03-22T00:01:24.204Z,1009.36
2017-03-22T00:02:33.165Z,1009.4
2017-03-22T00:03:42.380Z,1009.39
2017-03-22T00:04:51.342Z,1009.42
2017-03-22T00:06:00.304Z,1009.39
2017-03-22T00:07:09.252Z,1009.38
2017-03-22T00:08:18.214Z,1009.38
2017-03-22T00:09:27.426Z,1009.42
2017-03-22T00:10:36.380Z,1009.42
2017-03-22T00:11:45.339Z,1009.47
2017-03-22T00:12:54.291Z,1009.48
2017-03-22T00:14:03.252Z,1009.49
2017-03-22T00:15:12.547Z,1009.51
2017-03-22T00:16:21.505Z,1009.51
2017-03-22T00:17:30.460Z,1009.53
2017-03-22T00:18:39.426Z,1009.53
2017-03-22T00:19:48.382Z,1009.53
2017-03-22T00:20:57.639Z,1009.52
2017-03-22T00:22:06.679Z,1009.53
2017-03-22T00:23:15.637Z,1009.58
2017-03-22T00:24:24.592Z,1009.51
2017-03-22T00:25:33.550Z,1009.59
2017-03-22T00:26:42.770Z,1009.59
2017-03-22T00:27:51.813Z,1009.58
2017-03-22T00:29:00.775Z,1009.56
2017-03-22T00:30:09.739Z,1009.61
2017-03-22T00:31:18.692Z,1009.61
2017-03-22T00:32:27.946Z,1009.64
2017-03-22T00:33:36.907Z,1009.65
2017-03-22T00:34:45.873Z,1009.63
2017-03-22T00:35:54.828Z,1009.67
2017-03-22T00:37:03.786Z,1009.64
2017-03-22T00:38:12.991Z,1009.67
2017-03-22T00:39:21.952Z,1009.68
2017-03-22T00:40:31.260Z,1009.69
2017-03-22T00:41:40.220Z,1009.7
2017-03-22T00:42:49.267Z,1009.76
2017-03-22T00:43:58.483Z,1009.75
2017-03-22T00:45:07.443Z,1009.75
2017-03-22T00:46:16.397Z,1009.76
2017-03-22T00:47:25.356Z,1009.8
2017-03-22T00:48:34.311Z,1009.82
2017-03-22T00:49:43.578Z,1009.85
2017-03-22T00:50:52.542Z,1009.84
2017-03-22T00:52:01.501Z,1009.82
2017-03-22T00:53:10.459Z,1009.83
2017-03-22T00:54:19.423Z,1009.84
2017-03-22T00:55:28.642Z,1009.85
2017-03-22T00:56:37.605Z,1009.93
2017-03-22T00:57:46.566Z,1009.93
2017-03-22T00:58:55.526Z,1009.93
2017-03-22T01:00:04.482Z,1009.93
2017-03-22T01:01:13.744Z,1009.94
2017-03-22T01:02:22.706Z,1009.97
2017-03-22T01:03:31.667Z,1009.97
2017-03-22T01:04:40.641Z,1009.94
2017-03-22T01:05:49.600Z,1009.92
2017-03-22T01:06:58.854Z,1009.94
2017-03-22T01:08:07.813Z,1009.96
2017-03-22T01:09:16.768Z,1009.97
2017-03-22T01:10:25.728Z,1010.04
2017-03-22T01:11:34.678Z,1010.01
2017-03-22T01:12:43.879Z,1010.01
2017-03-22T01:13:52.840Z,1010.01
2017-03-22T01:15:01.804Z,1010.01
2017-03-22T01:16:10.758Z,1010.01
2017-03-22T01:17:19.710Z,1010.06
2017-03-22T01:18:28.964Z,1010.08
2017-03-22T01:19:37.920Z,1010.05
2017-03-22T01:20:46.881Z,1010.09
2017-03-22T01:21:55.836Z,1010.11
2017-03-22T01:23:04.795Z,1010.09
2017-03-22T01:24:14.073Z,1010.13
2017-03-22T01:25:23.050Z,1010.16
2017-03-22T01:26:32.001Z,1010.13
2017-03-22T01:27:40.946Z,1010.14
2017-03-22T01:28:49.908Z,1010.18
2017-03-22T01:29:59.109Z,1010.18
2017-03-22T01:31:08.064Z,1010.17
2017-03-22T01:32:17.017Z,1010.17
2017-03-22T01:33:25.973Z,1010.18
2017-03-22T01:34:34.939Z,1010.19
2017-03-22T01:35:44.222Z,1010.24
2017-03-22T01:36:53.177Z,1010.26
2017-03-22T01:38:02.134Z,1010.29
2017-03-22T01:39:11.184Z,1010.31
2017-03-22T01:40:20.145Z,1010.3
2017-03-22T01:41:29.404Z,1010.32
2017-03-22T01:42:38.370Z,1010.32
2017-03-22T01:43:47.331Z,1010.3
2017-03-22T01:44:56.379Z,1010.32
2017-03-22T01:46:05.340Z,1010.34
2017-03-22T01:47:14.557Z,1010.34
2017-03-22T01:48:23.512Z,1010.34
2017-03-22T01:49:32.489Z,1010.36
2017-03-22T01:50:41.441Z,1010.31
2017-03-22T01:51:50.394Z,1010.32
2017-03-22T01:52:59.599Z,1010.32
2017-03-22T01:54:08.557Z,1010.31
2017-03-22T01:55:17.517Z,1010.33
2017-03-22T01:56:26.472Z,1010.32
2017-03-22T01:57:35.425Z,1010.3
2017-03-22T01:58:44.960Z,1010.35
2017-03-22T01:59:53.930Z,1010.32
2017-03-22T02:01:02.884Z,1010.32
2017-03-22T02:02:11.835Z,1010.3
2017-03-22T02:03:20.798Z,1010.33
2017-03-22T02:04:30.056Z,1010.32
2017-03-22T02:05:39.050Z,1010.35
2017-03-22T02:06:47.999Z,1010.35
2017-03-22T02:07:57.285Z,1010.37
2017-03-22T02:09:06.239Z,1010.43
2017-03-22T02:10:15.498Z,1010.41
2017-03-22T02:11:24.453Z,1010.4
2017-03-22T02:12:33.406Z,1010.45
2017-03-22T02:13:42.370Z,1010.47
2017-03-22T02:14:51.332Z,1010.45
2017-03-22T02:16:00.584Z,1010.47
2017-03-22T02:17:09.539Z,1010.51
2017-03-22T02:18:18.493Z,1010.51
2017-03-22T02:19:27.452Z,1010.54
2017-03-22T02:20:36.415Z,1010.45
2017-03-22T02:21:45.655Z,1010.49
2017-03-22T02:22:54.607Z,1010.45
2017-03-22T02:24:03.574Z,1010.47
2017-03-22T02:25:12.538Z,1010.46
2017-03-22T02:26:21.491Z,1010.55
2017-03-22T02:27:30.747Z,1010.57
2017-03-22T02:28:39.754Z,1010.59
2017-03-22T02:29:48.717Z,1010.6
2017-03-22T02:30:57.677Z,1010.59
2017-03-22T02:32:06.634Z,1010.6
2017-03-22T02:33:15.888Z,1010.63
2017-03-22T02:34:24.839Z,1010.62
2017-03-22T02:35:33.793Z,1010.6
2017-03-22T02:36:42.752Z,1010.57
2017-03-22T02:37:51.708Z,1010.61
2017-03-22T02:39:00.971Z,1010.57
2017-03-22T02:40:09.933Z,1010.6
2017-03-22T02:41:18.885Z,1010.65
2017-03-22T02:42:27.925Z,1010.65
2017-03-22T02:43:36.977Z,1010.65
2017-03-22T02:44:46.249Z,1010.65
2017-03-22T02:45:55.202Z,1010.7
2017-03-22T02:47:04.150Z,1010.67
2017-03-22T02:48:13.114Z,1010.67
2017-03-22T02:49:22.081Z,1010.69
2017-03-22T02:50:31.379Z,1010.69
2017-03-22T02:51:40.431Z,1010.7
2017-03-22T02:52:49.377Z,1010.72
2017-03-22T02:53:58.337Z,1010.75
2017-03-22T02:55:07.292Z,1010.7
2017-03-22T02:56:16.548Z,1010.68
2017-03-22T02:57:25.508Z,1010.7
2017-03-22T02:58:34.472Z,1010.69
2017-03-22T02:59:43.432Z,1010.7
2017-03-22T03:00:52.390Z,1010.71
2017-03-22T03:02:01.647Z,1010.73
2017-03-22T03:03:10.608Z,1010.73
2017-03-22T03:04:19.576Z,1010.78
2017-03-22T03:05:28.536Z,1010.72
2017-03-22T03:06:37.492Z,1010.77
2017-03-22T03:07:46.744Z,1010.77
2017-03-22T03:08:55.705Z,1010.76
2017-03-22T03:10:04.666Z,1010.71
2017-03-22T03:11:13.623Z,1010.75
2017-03-22T03:12:22.571Z,1010.75
2017-03-22T03:13:31.823Z,1010.76
2017-03-22T03:14:40.779Z,1010.83
2017-03-22T03:15:49.737Z,1010.78
2017-03-22T03:16:58.702Z,1010.84
2017-03-22T03:18:07.656Z,1010.83
2017-03-22T03:19:16.863Z,1010.86
2017-03-22T03:20:25.822Z,1010.85
2017-03-22T03:21:34.777Z,1010.87
2017-03-22T03:22:43.732Z,1010.89
2017-03-22T03:23:52.692Z,1010.9
2017-03-22T03:25:01.954Z,1010.93
2017-03-22T03:26:10.906Z,1010.9
2017-03-22T03:27:19.858Z,1010.91
2017-03-22T03:28:28.814Z,1010.89
2017-03-22T03:29:37.778Z,1010.94
2017-03-22T03:30:47.037Z,1010.93
2017-03-22T03:31:55.991Z,1010.95
2017-03-22T03:33:04.949Z,1010.96
2017-03-22T03:34:13.905Z,1010.95
2017-03-22T03:35:22.868Z,1010.98
2017-03-22T03:36:32.130Z,1010.92
2017-03-22T03:37:41.080Z,1010.95
2017-03-22T03:38:50.045Z,1010.9
2017-03-22T03:39:59.008Z,1010.9
2017-03-22T03:41:07.967Z,1010.93
2017-03-22T03:42:17.217Z,1010.93
2017-03-22T03:43:26.181Z,1010.94
2017-03-22T03:44:35.142Z,1010.92
2017-03-22T03:45:44.096Z,1010.92
2017-03-22T03:46:53.048Z,1010.92
2017-03-22T03:48:02.298Z,1010.93
2017-03-22T03:49:11.250Z,1010.91
2017-03-22T03:50:20.212Z,1010.91
2017-03-22T03:51:29.487Z,1010.9
2017-03-22T03:52:38.449Z,1010.93
2017-03-22T03:53:47.695Z,1010.92
2017-03-22T03:54:56.661Z,1010.91
2017-03-22T03:56:05.621Z,1010.93
2017-03-22T03:57:14.664Z,1010.96
2017-03-22T03:58:23.621Z,1010.9
2017-03-22T03:59:32.834Z,1010.9
2017-03-22T04:00:41.792Z,1010.9
2017-03-22T04:01:50.842Z,1010.85
2017-03-22T04:02:59.799Z,1010.93
2017-03-22T04:04:08.772Z,1010.93
2017-03-22T04:05:18.041Z,1010.95
2017-03-22T04:06:26.999Z,1010.93
2017-03-22T04:07:35.962Z,1010.96
2017-03-22T04:08:44.933Z,1010.97
2017-03-22T04:09:53.897Z,1010.95
2017-03-22T04:11:03.166Z,1010.96
2017-03-22T04:12:12.446Z,1011.02
2017-03-22T04:13:21.398Z,1011.02
2017-03-22T04:14:30.678Z,1011.06
2017-03-22T04:15:39.634Z,1011.06
2017-03-22T04:16:48.884Z,1011.07
2017-03-22T04:17:57.844Z,1011.08
2017-03-22T04:19:06.803Z,1011.07
2017-03-22T04:20:15.765Z,1011.11
2017-03-22T04:21:24.725Z,1011.13
2017-03-22T04:22:33.985Z,1011.2
2017-03-22T04:23:42.951Z,1011.19
2017-03-22T04:24:51.914Z,1011.21
2017-03-22T04:26:00.876Z,1011.23
2017-03-22T04:27:09.841Z,1011.2
2017-03-22T04:28:19.053Z,1011.19
2017-03-22T04:29:28.010Z,1011.2
2017-03-22T04:30:36.963Z,1011.2
2017-03-22T04:31:45.921Z,1011.24
2017-03-22T04:32:54.878Z,1011.28
2017-03-22T04:34:04.091Z,1011.28
2017-03-22T04:35:13.050Z,1011.35
2017-03-22T04:36:22.010Z,1011.35
2017-03-22T04:37:30.962Z,1011.36
2017-03-22T04:38:39.920Z,1011.36
2017-03-22T04:39:49.449Z,1011.35
2017-03-22T04:40:58.410Z,1011.34
2017-03-22T04:42:07.368Z,1011.37
2017-03-22T04:43:16.333Z,1011.42
2017-03-22T04:44:25.291Z,1011.44
2017-03-22T04:45:34.502Z,1011.38
2017-03-22T04:46:43.453Z,1011.41
2017-03-22T04:47:52.402Z,1011.41
2017-03-22T04:49:01.360Z,1011.39
2017-03-22T04:50:10.317Z,1011.4
2017-03-22T04:51:19.525Z,1011.43
2017-03-22T04:52:28.480Z,1011.44
2017-03-22T04:53:37.437Z,1011.43
2017-03-22T04:54:46.405Z,1011.43
2017-03-22T04:55:55.365Z,1011.48
2017-03-22T04:57:04.568Z,1011.48
2017-03-22T04:58:13.533Z,1011.48
2017-03-22T04:59:22.489Z,1011.5
2017-03-22T05:00:31.456Z,1011.49
2017-03-22T05:01:40.415Z,1011.49
2017-03-22T05:02:49.630Z,1011.52
2017-03-22T05:03:58.683Z,1011.46
2017-03-22T05:05:07.643Z,1011.47
2017-03-22T05:06:16.601Z,1011.53
2017-03-22T05:07:25.646Z,1011.53
2017-03-22T05:08:34.856Z,1011.59
2017-03-22T05:09:43.815Z,1011.6
2017-03-22T05:10:52.771Z,1011.63
2017-03-22T05:12:01.719Z,1011.67
2017-03-22T05:13:10.675Z,1011.7
2017-03-22T05:14:19.897Z,1011.71
2017-03-22T05:15:28.851Z,1011.78
2017-03-22T05:16:38.130Z,1011.81
2017-03-22T05:17:47.088Z,1011.8
2017-03-22T05:18:56.381Z,1011.81
2017-03-22T05:20:05.596Z,1011.82
2017-03-22T05:21:14.550Z,1011.72
2017-03-22T05:22:23.592Z,1011.7
2017-03-22T05:23:32.549Z,1011.73
2017-03-22T05:24:41.510Z,1011.69
2017-03-22T05:25:50.725Z,1011.68
2017-03-22T05:26:59.679Z,1011.65
2017-03-22T05:28:08.637Z,1011.68
2017-03-22T05:29:17.628Z,1011.67
2017-03-22T05:30:26.585Z,1011.64
2017-03-22T05:31:35.788Z,1011.64
2017-03-22T05:32:44.739Z,1011.63
2017-03-22T05:33:53.709Z,1011.62
2017-03-22T05:35:02.667Z,1011.64
2017-03-22T05:36:11.624Z,1011.65
2017-03-22T05:37:20.829Z,1011.67
2017-03-22T05:38:29.786Z,1011.66
2017-03-22T05:39:38.745Z,1011.69
2017-03-22T05:40:47.700Z,1011.69
2017-03-22T05:41:56.660Z,1011.74
2017-03-22T05:43:06.198Z,1011.7
2017-03-22T05:44:15.160Z,1011.73
2017-03-22T05:45:24.121Z,1011.75
2017-03-22T05:46:33.070Z,1011.77
2017-03-22T05:47:42.024Z,1011.76
2017-03-22T05:48:51.233Z,1011.75
2017-03-22T05:50:00.197Z,1011.78
2017-03-22T05:51:09.149Z,1011.75
2017-03-22T05:52:18.103Z,1011.79
2017-03-22T05:53:27.061Z,1011.78
2017-03-22T05:54:36.270Z,1011.77
2017-03-22T05:55:45.324Z,1011.78
2017-03-22T05:56:54.281Z,1011.79
2017-03-22T05:58:03.242Z,1011.8
2017-03-22T05:59:12.522Z,1011.8
2017-03-22T06:00:21.740Z,1011.8
2017-03-22T06:01:30.693Z,1011.82
2017-03-22T06:02:39.641Z,1011.86
2017-03-22T06:03:48.601Z,1011.84
2017-03-22T06:04:57.659Z,1011.87
2017-03-22T06:06:06.866Z,1011.86
2017-03-22T06:07:15.824Z,1011.88
2017-03-22T06:08:24.784Z,1011.92
2017-03-22T06:09:33.755Z,1011.89
2017-03-22T06:10:42.724Z,1011.9
2017-03-22T06:11:51.923Z,1011.9
2017-03-22T06:13:00.873Z,1011.94
2017-03-22T06:14:09.835Z,1011.9
2017-03-22T06:15:19.118Z,1011.86
2017-03-22T06:16:28.071Z,1011.9
2017-03-22T06:17:37.285Z,1011.85
2017-03-22T06:18:46.251Z,1011.89
2017-03-22T06:19:55.201Z,1011.92
2017-03-22T06:21:04.158Z,1011.88
2017-03-22T06:22:13.113Z,1011.88
2017-03-22T06:23:22.324Z,1011.87
2017-03-22T06:24:31.321Z,1011.88
2017-03-22T06:25:40.277Z,1011.87
2017-03-22T06:26:49.224Z,1011.89
2017-03-22T06:27:58.191Z,1011.88
2017-03-22T06:29:07.428Z,1011.91
2017-03-22T06:30:16.390Z,1011.91
2017-03-22T06:31:25.435Z,1011.95
2017-03-22T06:32:34.388Z,1011.99
2017-03-22T06:33:43.349Z,1011.96
2017-03-22T06:34:52.558Z,1011.99
2017-03-22T06:36:01.519Z,1011.98
2017-03-22T06:37:10.470Z,1011.95
2017-03-22T06:38:19.431Z,1011.98
2017-03-22T06:39:28.489Z,1011.97
2017-03-22T06:40:37.697Z,1011.98
2017-03-22T06:41:46.648Z,1012.03
2017-03-22T06:42:55.609Z,1012.05
2017-03-22T06:44:04.575Z,1012.04
2017-03-22T06:45:13.540Z,1012.03
2017-03-22T06:46:22.742Z,1012.08
2017-03-22T06:47:31.696Z,1012.09
2017-03-22T06:48:40.654Z,1012.1
2017-03-22T06:49:49.936Z,1012.13
2017-03-22T06:50:58.899Z,1012.13
2017-03-22T06:52:08.104Z,1012.15
2017-03-22T06:53:17.059Z,1012.16
2017-03-22T06:54:26.017Z,1012.18
2017-03-22T06:55:34.980Z,1012.19
2017-03-22T06:56:43.938Z,1012.22
2017-03-22T06:57:53.155Z,1012.21
2017-03-22T06:59:02.131Z,1012.21
2017-03-22T07:00:11.086Z,1012.21
2017-03-22T07:01:20.044Z,1012.2
2017-03-22T07:02:28.997Z,1012.18
2017-03-22T07:03:38.212Z,1012.21
2017-03-22T07:04:47.179Z,1012.23
2017-03-22T07:05:56.137Z,1012.24
2017-03-22T07:07:05.092Z,1012.28
2017-03-22T07:08:14.100Z,1012.27
2017-03-22T07:09:23.312Z,1012.31
2017-03-22T07:10:32.276Z,1012.28
2017-03-22T07:11:41.250Z,1012.3
2017-03-22T07:12:50.216Z,1012.31
2017-03-22T07:13:59.175Z,1012.26
2017-03-22T07:15:08.384Z,1012.27
2017-03-22T07:16:17.344Z,1012.33
2017-03-22T07:17:26.308Z,1012.28
2017-03-22T07:18:35.263Z,1012.33
2017-03-22T07:19:44.227Z,1012.35
2017-03-22T07:20:53.433Z,1012.4
2017-03-22T07:22:02.417Z,1012.37
2017-03-22T07:23:11.379Z,1012.42
2017-03-22T07:24:20.342Z,1012.42
2017-03-22T07:25:29.298Z,1012.41
2017-03-22T07:26:38.500Z,1012.44
2017-03-22T07:27:47.453Z,1012.46
2017-03-22T07:28:56.415Z,1012.54
2017-03-22T07:30:05.376Z,1012.49
2017-03-22T07:31:14.331Z,1012.49
2017-03-22T07:32:23.624Z,1012.48
2017-03-22T07:33:32.594Z,1012.48
2017-03-22T07:34:41.919Z,1012.49
2017-03-22T07:35:50.883Z,1012.52
2017-03-22T07:36:59.831Z,1012.51
2017-03-22T07:38:09.039Z,1012.5
2017-03-22T07:39:17.997Z,1012.5
2017-03-22T07:40:27.278Z,1012.58
2017-03-22T07:41:36.233Z,1012.59
2017-03-22T07:42:45.195Z,1012.62
2017-03-22T07:43:54.410Z,1012.66
2017-03-22T07:45:03.370Z,1012.64
2017-03-22T07:46:12.324Z,1012.63
2017-03-22T07:47:21.278Z,1012.66
2017-03-22T07:48:30.244Z,1012.67
2017-03-22T07:49:39.505Z,1012.68
2017-03-22T07:50:48.464Z,1012.72
2017-03-22T07:51:57.413Z,1012.71
2017-03-22T07:53:06.373Z,1012.73
2017-03-22T07:54:15.336Z,1012.76
2017-03-22T07:55:24.601Z,1012.75
2017-03-22T07:56:33.554Z,1012.8
2017-03-22T07:57:42.515Z,1012.78
2017-03-22T07:58:51.474Z,1012.82
2017-03-22T08:00:00.514Z,1012.81
2017-03-22T08:01:09.722Z,1012.8
2017-03-22T08:02:18.680Z,1012.82
2017-03-22T08:03:27.636Z,1012.83
2017-03-22T08:04:36.598Z,1012.86
2017-03-22T08:05:45.637Z,1012.89
2017-03-22T08:06:54.839Z,1012.88
2017-03-22T08:08:03.800Z,1012.9
2017-03-22T08:09:12.754Z,1012.95
2017-03-22T08:10:21.720Z,1012.93
2017-03-22T08:11:31.017Z,1012.98
2017-03-22T08:12:40.311Z,1012.97
2017-03-22T08:13:49.273Z,1012.98
2017-03-22T08:14:58.234Z,1012.99
2017-03-22T08:16:07.187Z,1013.01
2017-03-22T08:17:16.139Z,1013.02
2017-03-22T08:18:25.339Z,1013.01
2017-03-22T08:19:34.301Z,1013.02
2017-03-22T08:20:43.261Z,1013.06
2017-03-22T08:21:52.300Z,1013.02
2017-03-22T08:23:01.254Z,1013.05
2017-03-22T08:24:10.467Z,1013.05
2017-03-22T08:25:19.433Z,1013.03
2017-03-22T08:26:28.393Z,1013.07
2017-03-22T08:27:37.387Z,1013.1
2017-03-22T08:28:46.348Z,1013.06
2017-03-22T08:29:55.575Z,1013.1
2017-03-22T08:31:04.548Z,1013.1
2017-03-22T08:32:13.502Z,1013.11
2017-03-22T08:33:22.454Z,1013.1
2017-03-22T08:34:31.494Z,1013.16
2017-03-22T08:35:40.701Z,1013.21
2017-03-22T08:36:49.656Z,1013.18
2017-03-22T08:37:58.612Z,1013.25
2017-03-22T08:39:07.569Z,1013.2
2017-03-22T08:40:16.534Z,1013.21
2017-03-22T08:41:25.736Z,1013.23
2017-03-22T08:42:34.684Z,1013.27
2017-03-22T08:43:43.637Z,1013.28
2017-03-22T08:44:52.591Z,1013.28
2017-03-22T08:46:01.550Z,1013.29
2017-03-22T08:47:10.758Z,1013.31
2017-03-22T08:48:19.714Z,1013.34
2017-03-22T08:49:28.677Z,1013.36
2017-03-22T08:50:37.718Z,1013.38
2017-03-22T08:51:46.673Z,1013.42
2017-03-22T08:52:55.877Z,1013.42
2017-03-22T08:54:04.840Z,1013.43
2017-03-22T08:55:13.806Z,1013.47
2017-03-22T08:56:22.762Z,1013.49
2017-03-22T08:57:31.715Z,1013.44
2017-03-22T08:58:40.943Z,1013.47
2017-03-22T08:59:49.905Z,1013.49
2017-03-22T09:00:58.865Z,1013.43
2017-03-22T09:02:07.822Z,1013.41
2017-03-22T09:03:16.777Z,1013.48
2017-03-22T09:04:25.985Z,1013.45
2017-03-22T09:05:34.937Z,1013.46
2017-03-22T09:06:43.894Z,1013.51
2017-03-22T09:07:52.847Z,1013.49
2017-03-22T09:09:01.885Z,1013.54
2017-03-22T09:10:11.089Z,1013.53
2017-03-22T09:11:20.041Z,1013.56
2017-03-22T09:12:29.004Z,1013.58
2017-03-22T09:13:37.960Z,1013.6
2017-03-22T09:14:46.916Z,1013.57
2017-03-22T09:17:19.700Z,1013.54
2017-03-22T09:18:28.655Z,1013.55
2017-03-22T09:19:37.608Z,1013.58
2017-03-22T09:20:46.561Z,1013.52
2017-03-22T09:21:55.761Z,1013.59
2017-03-22T09:23:04.721Z,1013.58
2017-03-22T09:24:13.685Z,1013.57
2017-03-22T09:25:22.645Z,1013.61
2017-03-22T09:26:31.598Z,1013.63
2017-03-22T09:27:40.808Z,1013.62
2017-03-22T09:28:49.764Z,1013.58
2017-03-22T09:29:58.719Z,1013.59
2017-03-22T09:31:07.671Z,1013.59
2017-03-22T09:32:16.629Z,1013.59
2017-03-22T09:33:25.840Z,1013.59
2017-03-22T09:34:34.796Z,1013.64
2017-03-22T09:35:43.751Z,1013.68
2017-03-22T09:36:52.707Z,1013.64
2017-03-22T09:38:01.659Z,1013.68
2017-03-22T09:39:10.862Z,1013.65
2017-03-22T09:40:19.817Z,1013.63
2017-03-22T09:41:28.776Z,1013.62
2017-03-22T09:42:37.742Z,1013.65
2017-03-22T09:43:46.697Z,1013.6
2017-03-22T09:44:55.901Z,1013.62
2017-03-22T09:46:04.863Z,1013.62
2017-03-22T09:47:13.819Z,1013.62
2017-03-22T09:48:22.771Z,1013.59
2017-03-22T09:49:31.816Z,1013.62
2017-03-22T09:50:41.021Z,1013.58
2017-03-22T09:51:50.015Z,1013.63
2017-03-22T09:52:58.970Z,1013.56
2017-03-22T09:54:08.250Z,1013.55
2017-03-22T09:55:17.206Z,1013.58
2017-03-22T09:56:26.412Z,1013.61
2017-03-22T09:57:35.367Z,1013.61
2017-03-22T09:58:44.320Z,1013.61
2017-03-22T09:59:53.279Z,1013.6
2017-03-22T10:01:02.237Z,1013.56
2017-03-22T10:02:11.444Z,1013.58
2017-03-22T10:03:20.398Z,1013.57
2017-03-22T10:04:29.349Z,1013.56
2017-03-22T10:05:38.307Z,1013.55
2017-03-22T10:06:47.266Z,1013.51
2017-03-22T10:07:56.464Z,1013.54
2017-03-22T10:09:05.419Z,1013.52
2017-03-22T10:10:14.377Z,1013.57
2017-03-22T10:11:23.335Z,1013.54
2017-03-22T10:12:32.296Z,1013.58
2017-03-22T10:13:41.502Z,1013.62
2017-03-22T10:14:50.551Z,1013.53
2017-03-22T10:15:59.836Z,1013.52
2017-03-22T10:17:08.790Z,1013.51
2017-03-22T10:18:17.747Z,1013.53
2017-03-22T10:19:26.954Z,1013.5
2017-03-22T10:20:35.908Z,1013.47
2017-03-22T10:21:44.864Z,1013.51
2017-03-22T10:22:53.828Z,1013.47
2017-03-22T10:24:02.784Z,1013.5
2017-03-22T10:25:11.987Z,1013.55
2017-03-22T10:26:21.281Z,1013.57
2017-03-22T10:27:30.237Z,1013.53
2017-03-22T10:28:39.193Z,1013.56
2017-03-22T10:29:48.203Z,1013.56
2017-03-22T10:30:57.410Z,1013.6
2017-03-22T10:32:06.689Z,1013.57
2017-03-22T10:33:15.642Z,1013.58
2017-03-22T10:34:24.592Z,1013.58
2017-03-22T10:35:33.554Z,1013.59
2017-03-22T10:36:42.765Z,1013.56
2017-03-22T10:37:51.719Z,1013.57
2017-03-22T10:39:00.677Z,1013.56
2017-03-22T10:40:09.716Z,1013.63
2017-03-22T10:41:18.679Z,1013.57
2017-03-22T10:42:27.879Z,1013.58
2017-03-22T10:43:36.832Z,1013.57
2017-03-22T10:44:45.785Z,1013.6
2017-03-22T10:45:54.740Z,1013.63
2017-03-22T10:47:03.708Z,1013.62
2017-03-22T10:48:12.914Z,1013.65
2017-03-22T10:49:21.865Z,1013.62
2017-03-22T10:50:30.821Z,1013.58
2017-03-22T10:51:39.773Z,1013.63
2017-03-22T10:52:48.733Z,1013.6
2017-03-22T10:53:57.939Z,1013.59
2017-03-22T10:55:06.889Z,1013.6
2017-03-22T10:56:15.851Z,1013.56
2017-03-22T10:57:24.802Z,1013.6
2017-03-22T10:58:33.843Z,1013.61
2017-03-22T10:59:43.375Z,1013.56
2017-03-22T11:00:52.336Z,1013.58
2017-03-22T11:02:01.290Z,1013.61
2017-03-22T11:03:10.249Z,1013.59
2017-03-22T11:04:19.207Z,1013.57
2017-03-22T11:05:28.416Z,1013.55
2017-03-22T11:06:37.369Z,1013.57
2017-03-22T11:07:46.325Z,1013.52
2017-03-22T11:08:55.287Z,1013.53
2017-03-22T11:10:04.253Z,1013.51
2017-03-22T11:11:13.455Z,1013.53
2017-03-22T11:12:22.434Z,1013.5
2017-03-22T11:13:31.396Z,1013.47
2017-03-22T11:14:40.351Z,1013.45
2017-03-22T11:15:49.313Z,1013.47
2017-03-22T11:16:58.571Z,1013.47
2017-03-22T11:18:07.527Z,1013.48
2017-03-22T11:19:16.491Z,1013.5
2017-03-22T11:20:25.445Z,1013.54
2017-03-22T11:21:34.404Z,1013.44
2017-03-22T11:22:43.608Z,1013.5
2017-03-22T11:23:52.567Z,1013.46
2017-03-22T11:25:01.524Z,1013.47
2017-03-22T11:26:10.483Z,1013.48
2017-03-22T11:27:19.444Z,1013.5
2017-03-22T11:28:28.651Z,1013.52
2017-03-22T11:29:37.606Z,1013.51
2017-03-22T11:30:46.568Z,1013.53
2017-03-22T11:31:55.525Z,1013.53
2017-03-22T11:33:04.815Z,1013.52
2017-03-22T11:34:14.030Z,1013.53
2017-03-22T11:35:22.987Z,1013.56
2017-03-22T11:36:31.940Z,1013.52
2017-03-22T11:37:40.984Z,1013.5
2017-03-22T11:38:49.944Z,1013.48
2017-03-22T11:39:59.151Z,1013.52
2017-03-22T11:41:08.111Z,1013.5
2017-03-22T11:42:17.086Z,1013.49
2017-03-22T11:43:26.054Z,1013.43
2017-03-22T11:44:35.014Z,1013.42
2017-03-22T11:45:44.217Z,1013.42
2017-03-22T11:46:53.175Z,1013.42
2017-03-22T11:48:02.129Z,1013.41
2017-03-22T11:49:11.084Z,1013.42
2017-03-22T11:50:20.038Z,1013.39
2017-03-22T11:51:29.249Z,1013.39
2017-03-22T11:52:38.204Z,1013.43
2017-03-22T11:53:47.158Z,1013.37
2017-03-22T11:54:56.112Z,1013.35
2017-03-22T11:56:05.067Z,1013.38
2017-03-22T11:57:14.273Z,1013.4
2017-03-22T11:58:23.228Z,1013.37
2017-03-22T11:59:32.275Z,1013.38
2017-03-22T12:00:41.230Z,1013.37
2017-03-22T12:01:50.186Z,1013.34
2017-03-22T12:02:59.447Z,1013.31
2017-03-22T12:04:08.496Z,1013.38
2017-03-22T12:05:17.456Z,1013.36
2017-03-22T12:06:26.414Z,1013.34
2017-03-22T12:07:35.369Z,1013.32
2017-03-22T12:08:44.578Z,1013.3
2017-03-22T12:09:53.542Z,1013.31
2017-03-22T12:11:02.843Z,1013.28
2017-03-22T12:12:11.804Z,1013.3
2017-03-22T12:13:20.759Z,1013.26
2017-03-22T12:14:29.973Z,1013.32
2017-03-22T12:15:38.930Z,1013.35
2017-03-22T12:16:47.885Z,1013.36
2017-03-22T12:17:56.842Z,1013.36
2017-03-22T12:19:05.800Z,1013.35
2017-03-22T12:20:15.009Z,1013.31
2017-03-22T12:21:23.965Z,1013.34
2017-03-22T12:22:32.919Z,1013.33
2017-03-22T12:23:41.966Z,1013.35
2017-03-22T12:24:50.922Z,1013.33
2017-03-22T12:26:00.131Z,1013.33
2017-03-22T12:27:09.097Z,1013.3
2017-03-22T12:28:18.058Z,1013.25
2017-03-22T12:29:27.010Z,1013.26
2017-03-22T12:30:35.970Z,1013.31
2017-03-22T12:31:45.176Z,1013.29
2017-03-22T12:32:54.135Z,1013.26
2017-03-22T12:34:03.099Z,1013.28
2017-03-22T12:35:12.056Z,1013.3
2017-03-22T12:36:21.013Z,1013.3
2017-03-22T12:37:30.222Z,1013.32
2017-03-22T12:38:39.174Z,1013.25
2017-03-22T12:39:48.127Z,1013.31
2017-03-22T12:40:57.084Z,1013.24
2017-03-22T12:42:06.053Z,1013.21
2017-03-22T12:43:15.271Z,1013.2
2017-03-22T12:44:24.221Z,1013.23
2017-03-22T12:45:33.267Z,1013.24
2017-03-22T12:46:42.227Z,1013.21
2017-03-22T12:47:51.187Z,1013.2
2017-03-22T12:49:00.720Z,1013.21
2017-03-22T12:50:09.680Z,1013.16
2017-03-22T12:51:18.633Z,1013.18
2017-03-22T12:52:27.587Z,1013.16
2017-03-22T12:53:36.542Z,1013.15
2017-03-22T12:54:45.749Z,1013.14
2017-03-22T12:55:54.707Z,1013.19
2017-03-22T12:57:03.667Z,1013.16
2017-03-22T12:58:12.623Z,1013.18
2017-03-22T12:59:21.580Z,1013.23
2017-03-22T13:00:30.872Z,1013.2
2017-03-22T13:01:39.830Z,1013.22
2017-03-22T13:02:48.874Z,1013.23
2017-03-22T13:03:57.828Z,1013.19
2017-03-22T13:05:06.788Z,1013.17
2017-03-22T13:06:15.997Z,1013.17
2017-03-22T13:07:24.958Z,1013.19
2017-03-22T13:08:33.909Z,1013.2
2017-03-22T13:09:42.868Z,1013.22
2017-03-22T13:10:51.827Z,1013.22
2017-03-22T13:12:01.029Z,1013.24
2017-03-22T13:13:09.997Z,1013.19
2017-03-22T13:14:18.953Z,1013.19
2017-03-22T13:15:27.909Z,1013.23
2017-03-22T13:16:36.905Z,1013.2
2017-03-22T13:17:46.206Z,1013.22
2017-03-22T13:18:55.186Z,1013.2
2017-03-22T13:20:04.646Z,1013.2
2017-03-22T13:21:13.689Z,1013.21
2017-03-22T13:22:22.969Z,1013.2
2017-03-22T13:23:32.183Z,1013.24
2017-03-22T13:24:41.150Z,1013.22
2017-03-22T13:25:50.114Z,1013.24
2017-03-22T13:26:59.071Z,1013.27
2017-03-22T13:28:08.028Z,1013.29
2017-03-22T13:29:17.306Z,1013.26
2017-03-22T13:30:26.273Z,1013.27
2017-03-22T13:31:35.232Z,1013.24
2017-03-22T13:32:44.516Z,1013.26
2017-03-22T13:33:53.476Z,1013.25
2017-03-22T13:35:02.685Z,1013.24
2017-03-22T13:36:11.644Z,1013.27
2017-03-22T13:37:20.605Z,1013.31
2017-03-22T13:38:29.563Z,1013.19
2017-03-22T13:39:38.523Z,1013.18
2017-03-22T13:40:47.734Z,1013.21
2017-03-22T13:41:56.699Z,1013.21
2017-03-22T13:43:05.668Z,1013.13
2017-03-22T13:44:14.623Z,1013.16
2017-03-22T13:45:23.581Z,1013.14
2017-03-22T13:46:32.905Z,1013.13
2017-03-22T13:47:41.868Z,1013.13
2017-03-22T13:48:50.833Z,1013.11
2017-03-22T13:49:59.789Z,1013.17
2017-03-22T13:51:08.751Z,1013.11
2017-03-22T13:52:17.963Z,1013.13
2017-03-22T13:53:26.923Z,1013.13
2017-03-22T13:54:35.877Z,1013.09
2017-03-22T13:55:44.838Z,1013.08
2017-03-22T13:56:53.793Z,1013.04
2017-03-22T13:58:03.002Z,1013.07
2017-03-22T13:59:11.986Z,1013.09